Terminal Aerodrome Forecast
Issued by NWS Indianapolis, IN

Home | Current Version | Previous Version | Text Only | Print | Product List | Glossary On
Versions: 1 2 3 4 5 6 7 8 9 10 11 12 13 14 15 16 17 18 19 20 21 22 23 24 25 26
000
FTUS43 KIND 311209 AAA
TAFIND
TAF AMD
KIND 311209Z 3112/0118 24003KT 4SM BR BCFG SCT050 BKN150
     FM311300 23008KT P6SM SCT050 SCT250
     FM010100 20004KT P6SM SCT250
      TEMPO 0109/0112 4SM BR
     FM011300 21005KT P6SM SCT050=

USA.gov is the U.S. government's official web portal to all federal, state and local government web resources and services.